Time,TemperatureF,DewpointF,PressureIn,WindDirection,WindDirectionDegrees,WindSpeedMPH,WindSpeedGustMPH,Humidity,HourlyPrecipIn,Conditions,Clouds,dailyrainin,SoftwareType,DateUTC
2013-03-07 00:04:00,57.6,53.4,30.25,East,92,4.4,5.8,86,0.00,CLR,,0.00,WeatherDisplay:10.37,2013-03-07 06:04:00,
2013-03-07 00:09:00,57.5,53.3,30.24,East,97,4.9,6.9,86,0.00,CLR,,0.00,WeatherDisplay:10.37,2013-03-07 06:09:00,
2013-03-07 00:14:00,57.6,53.4,30.24,ESE,102,4.3,5.8,86,0.00,CLR,,0.00,WeatherDisplay:10.37,2013-03-07 06:14:00,
2013-03-07 00:19:00,57.5,53.3,30.25,East,97,3.8,6.1,86,0.00,CLR,,0.00,WeatherDisplay:10.37,2013-03-07 06:19:00,
2013-03-07 00:24:00,57.6,53.8,30.24,SE,137,4.4,6.0,87,0.00,CLR,,0.00,WeatherDisplay:10.37,2013-03-07 06:24:00,
2013-03-07 00:29:00,57.8,54.3,30.24,SE,145,4.1,6.1,88,0.00,CLR,,0.00,WeatherDisplay:10.37,2013-03-07 06:29:00,
2013-03-07 00:34:00,57.9,54.7,30.25,SSE,148,3.0,6.9,89,0.00,CLR,,0.00,WeatherDisplay:10.37,2013-03-07 06:34:00,
2013-03-07 00:39:00,58.1,54.6,30.24,ESE,121,5.4,8.1,88,0.00,CLR,,0.00,WeatherDisplay:10.37,2013-03-07 06:39:00,
2013-03-07 00:44:00,58.2,54.7,30.24,SE,124,3.4,6.2,88,0.00,CLR,,0.00,WeatherDisplay:10.37,2013-03-07 06:44:00,
2013-03-07 00:49:00,58.3,54.8,30.24,SE,143,2.8,4.5,88,0.00,CLR,,0.00,WeatherDisplay:10.37,2013-03-07 06:49:00,
2013-03-07 00:55:00,58.4,54.9,30.24,SSE,148,3.5,5.8,88,0.00,CLR,,0.00,WeatherDisplay:10.37,2013-03-07 06:55:00,
2013-03-07 01:00:00,58.7,54.8,30.24,SE,138,4.0,5.6,87,0.00,CLR,,0.00,WeatherDisplay:10.37,2013-03-07 07:00:00,
2013-03-07 01:05:00,58.7,54.8,30.23,SE,137,4.3,6.9,87,0.00,CLR,,0.00,WeatherDisplay:10.37,2013-03-07 07:05:00,
2013-03-07 01:10:00,58.9,55.0,30.23,SSE,157,4.2,8.1,87,0.00,CLR,,0.00,WeatherDisplay:10.37,2013-03-07 07:10:00,
2013-03-07 01:15:00,58.9,55.0,30.22,ESE,123,5.0,8.1,87,0.00,CLR,,0.00,WeatherDisplay:10.37,2013-03-07 07:15:00,
2013-03-07 01:20:00,59.0,55.4,30.22,SSE,167,4.9,6.9,88,0.00,CLR,,0.00,WeatherDisplay:10.37,2013-03-07 07:20:00,
2013-03-07 01:25:00,58.9,55.4,30.22,ESE,120,4.6,7.0,88,0.00,CLR,,0.00,WeatherDisplay:10.37,2013-03-07 07:25:00,
2013-03-07 01:30:00,58.9,55.7,30.22,ESE,123,3.7,7.4,89,0.00,CLR,,0.00,WeatherDisplay:10.37,2013-03-07 07:30:00,
2013-03-07 01:35:00,58.9,55.7,30.22,SE,137,5.0,8.1,89,0.00,CLR,,0.00,WeatherDisplay:10.37,2013-03-07 07:35:00,
2013-03-07 01:40:00,58.9,55.7,30.21,SE,128,5.6,6.9,89,0.00,CLR,,0.00,WeatherDisplay:10.37,2013-03-07 07:40:00,
2013-03-07 01:45:00,58.9,55.7,30.21,ESE,117,5.4,9.4,89,0.00,CLR,,0.00,WeatherDisplay:10.37,2013-03-07 07:45:00,
2013-03-07 01:50:00,58.9,55.7,30.21,SSE,157,4.1,5.8,89,0.00,CLR,,0.00,WeatherDisplay:10.37,2013-03-07 07:50:00,
2013-03-07 01:56:00,58.8,55.6,30.21,SE,137,4.6,6.9,89,0.00,CLR,,0.00,WeatherDisplay:10.37,2013-03-07 07:56:00,
2013-03-07 02:01:00,58.8,55.3,30.21,SE,124,3.6,4.6,88,0.00,CLR,,0.00,WeatherDisplay:10.37,2013-03-07 08:01:00,
2013-03-07 02:06:00,58.8,55.3,30.21,SE,143,4.4,6.9,88,0.00,CLR,,0.00,WeatherDisplay:10.37,2013-03-07 08:06:00,
2013-03-07 02:11:00,58.9,55.4,30.20,SE,127,2.5,4.6,88,0.00,CLR,,0.00,WeatherDisplay:10.37,2013-03-07 08:11:00,
2013-03-07 02:16:00,58.9,55.4,30.20,ESE,123,3.6,6.7,88,0.00,CLR,,0.00,WeatherDisplay:10.37,2013-03-07 08:16:00,
2013-03-07 02:21:00,58.9,55.0,30.19,SSE,152,3.6,6.9,87,0.00,CLR,,0.00,WeatherDisplay:10.37,2013-03-07 08:21:00,
2013-03-07 02:26:00,58.8,54.9,30.20,SE,145,3.6,6.9,87,0.00,CLR,,0.00,WeatherDisplay:10.37,2013-03-07 08:26:00,
2013-03-07 02:31:00,58.8,54.9,30.20,ESE,104,3.9,6.9,87,0.00,CLR,,0.00,WeatherDisplay:10.37,2013-03-07 08:31:00,
2013-03-07 02:37:00,58.9,55.4,30.20,SE,141,2.1,3.5,88,0.00,CLR,,0.00,WeatherDisplay:10.37,2013-03-07 08:37:00,
2013-03-07 02:42:00,58.8,55.3,30.20,SE,138,2.1,4.7,88,0.00,CLR,,0.00,WeatherDisplay:10.37,2013-03-07 08:42:00,
2013-03-07 02:47:00,58.8,55.3,30.19,East,95,2.7,4.6,88,0.00,CLR,,0.00,WeatherDisplay:10.37,2013-03-07 08:47:00,
2013-03-07 02:52:00,58.8,55.3,30.19,ESE,120,2.9,4.6,88,0.00,CLR,,0.00,WeatherDisplay:10.37,2013-03-07 08:52:00,
2013-03-07 02:57:00,58.6,55.1,30.19,ESE,114,3.8,5.8,88,0.00,CLR,,0.00,WeatherDisplay:10.37,2013-03-07 08:57:00,
2013-03-07 03:02:00,58.5,55.0,30.18,ESE,113,3.5,5.8,88,0.00,CLR,,0.00,WeatherDisplay:10.37,2013-03-07 09:02:00,
2013-03-07 03:07:00,58.4,54.9,30.17,ESE,116,3.5,5.8,88,0.00,CLR,,0.00,WeatherDisplay:10.37,2013-03-07 09:07:00,
2013-03-07 03:12:00,58.3,54.8,30.17,SSE,150,3.5,6.3,88,0.00,CLR,,0.00,WeatherDisplay:10.37,2013-03-07 09:12:00,
2013-03-07 03:17:00,58.2,55.0,30.17,ESE,123,3.6,5.8,89,0.00,CLR,,0.00,WeatherDisplay:10.37,2013-03-07 09:17:00,
2013-03-07 03:22:00,58.2,55.0,30.17,East,99,3.7,6.9,89,0.00,CLR,,0.00,WeatherDisplay:10.37,2013-03-07 09:22:00,
2013-03-07 03:27:00,58.1,55.2,30.17,East,89,3.3,5.8,90,0.00,CLR,,0.00,WeatherDisplay:10.37,2013-03-07 09:27:00,
2013-03-07 03:32:00,58.1,55.2,30.17,SSE,151,4.4,6.7,90,0.00,CLR,,0.00,WeatherDisplay:10.37,2013-03-07 09:32:00,
2013-03-07 03:37:00,58.2,55.3,30.16,SE,126,3.9,5.5,90,0.00,CLR,,0.00,WeatherDisplay:10.37,2013-03-07 09:37:00,
2013-03-07 03:43:00,58.2,55.6,30.16,SE,124,3.0,4.6,91,0.00,CLR,,0.00,WeatherDisplay:10.37,2013-03-07 09:43:00,
2013-03-07 03:48:00,58.1,55.5,30.16,SE,126,3.3,5.0,91,0.00,CLR,,0.00,WeatherDisplay:10.37,2013-03-07 09:48:00,
2013-03-07 03:53:00,58.1,55.5,30.17,ESE,119,2.6,3.5,91,0.00,CLR,,0.00,WeatherDisplay:10.37,2013-03-07 09:53:00,
2013-03-07 03:58:00,58.0,55.4,30.17,ESE,112,2.8,4.0,91,0.00,CLR,,0.00,WeatherDisplay:10.37,2013-03-07 09:58:00,
2013-03-07 04:03:00,58.0,55.7,30.16,East,93,3.5,5.8,92,0.00,CLR,,0.00,WeatherDisplay:10.37,2013-03-07 10:03:00,
2013-03-07 04:08:00,58.0,55.7,30.16,SE,127,3.4,5.8,92,0.00,CLR,,0.00,WeatherDisplay:10.37,2013-03-07 10:08:00,
2013-03-07 04:13:00,58.0,55.7,30.16,ESE,110,3.8,5.8,92,0.00,CLR,,0.00,WeatherDisplay:10.37,2013-03-07 10:13:00,
2013-03-07 04:18:00,58.0,55.7,30.16,East,97,3.4,4.7,92,0.00,CLR,,0.00,WeatherDisplay:10.37,2013-03-07 10:18:00,
2013-03-07 04:23:00,57.9,55.9,30.16,ESE,106,4.8,6.9,93,0.00,CLR,,0.00,WeatherDisplay:10.37,2013-03-07 10:23:00,
2013-03-07 04:28:00,57.9,55.9,30.16,SE,127,3.4,6.9,93,0.00,CLR,,0.00,WeatherDisplay:10.37,2013-03-07 10:28:00,
2013-03-07 04:33:00,57.9,55.9,30.16,ESE,106,2.4,5.8,93,0.00,CLR,,0.00,WeatherDisplay:10.37,2013-03-07 10:33:00,
2013-03-07 04:38:00,57.9,55.9,30.16,East,96,2.4,5.8,93,0.00,CLR,,0.00,WeatherDisplay:10.37,2013-03-07 10:38:00,
2013-03-07 04:43:00,57.9,56.2,30.16,ESE,103,3.3,4.9,94,0.00,CLR,,0.00,WeatherDisplay:10.37,2013-03-07 10:43:00,
2013-03-07 04:48:00,57.9,56.2,30.16,East,92,3.2,4.9,94,0.00,CLR,,0.00,WeatherDisplay:10.37,2013-03-07 10:48:00,
2013-03-07 04:54:00,57.9,56.2,30.16,ESE,109,3.0,5.8,94,0.00,CLR,,0.00,WeatherDisplay:10.37,2013-03-07 10:54:00,
2013-03-07 04:59:00,57.9,56.2,30.16,ESE,103,3.2,4.6,94,0.00,CLR,,0.00,WeatherDisplay:10.37,2013-03-07 10:59:00,
2013-03-07 05:04:00,57.9,56.2,30.16,ESE,102,3.3,4.6,94,0.00,CLR,,0.00,WeatherDisplay:10.37,2013-03-07 11:04:00,
2013-03-07 05:09:00,57.9,56.5,30.16,ESE,117,3.7,4.8,95,0.00,CLR,,0.00,WeatherDisplay:10.37,2013-03-07 11:09:00,
2013-03-07 05:14:00,58.0,56.6,30.16,ESE,114,3.1,4.6,95,0.00,CLR,,0.00,WeatherDisplay:10.37,2013-03-07 11:14:00,
2013-03-07 05:19:00,58.0,56.6,30.17,East,95,3.7,4.6,95,0.00,CLR,,0.00,WeatherDisplay:10.37,2013-03-07 11:19:00,
2013-03-07 05:24:00,58.0,56.6,30.17,ESE,102,3.6,5.8,95,0.00,CLR,,0.00,WeatherDisplay:10.37,2013-03-07 11:24:00,
2013-03-07 05:30:00,58.1,56.7,30.17,ESE,104,3.4,5.8,95,0.00,CLR,,0.00,WeatherDisplay:10.37,2013-03-07 11:30:00,
2013-03-07 05:35:00,58.1,56.7,30.17,ESE,106,3.1,4.6,95,0.00,CLR,,0.00,WeatherDisplay:10.37,2013-03-07 11:35:00,
2013-03-07 05:40:00,58.1,56.7,30.17,ESE,102,3.4,5.8,95,0.00,CLR,,0.00,WeatherDisplay:10.37,2013-03-07 11:40:00,
2013-03-07 05:45:00,58.1,56.7,30.17,ESE,106,2.9,4.6,95,0.00,CLR,,0.00,WeatherDisplay:10.37,2013-03-07 11:45:00,
2013-03-07 05:50:00,58.1,57.0,30.17,East,93,2.4,4.6,96,0.00,CLR,,0.00,WeatherDisplay:10.37,2013-03-07 11:50:00,
2013-03-07 05:55:00,58.2,57.1,30.17,SE,124,3.5,5.8,96,0.00,CLR,,0.00,WeatherDisplay:10.37,2013-03-07 11:55:00,
2013-03-07 06:00:00,58.2,57.1,30.17,ESE,104,3.7,5.8,96,0.00,CLR,,0.00,WeatherDisplay:10.37,2013-03-07 12:00:00,
2013-03-07 06:05:00,58.2,57.1,30.17,ESE,112,3.8,4.8,96,0.00,CLR,,0.00,WeatherDisplay:10.37,2013-03-07 12:05:00,
2013-03-07 06:10:00,58.2,57.1,30.17,SE,140,2.4,3.8,96,0.00,CLR,,0.00,WeatherDisplay:10.37,2013-03-07 12:10:00,
2013-03-07 06:15:00,58.2,57.1,30.17,ESE,103,2.3,4.6,96,0.00,CLR,,0.00,WeatherDisplay:10.37,2013-03-07 12:15:00,
2013-03-07 06:20:00,58.3,57.2,30.18,East,96,2.6,3.5,96,0.00,CLR,,0.00,WeatherDisplay:10.37,2013-03-07 12:20:00,
2013-03-07 06:26:00,58.3,57.2,30.18,East,86,1.8,3.5,96,0.00,CLR,,0.00,WeatherDisplay:10.37,2013-03-07 12:26:00,
2013-03-07 06:31:00,58.3,57.2,30.18,East,88,2.0,3.5,96,0.00,CLR,,0.00,WeatherDisplay:10.37,2013-03-07 12:31:00,
2013-03-07 06:36:00,58.2,57.1,30.19,East,97,2.3,3.5,96,0.00,CLR,,0.00,WeatherDisplay:10.37,2013-03-07 12:36:00,
2013-03-07 06:41:00,58.3,57.2,30.18,ESE,102,3.3,4.6,96,0.00,CLR,,0.00,WeatherDisplay:10.37,2013-03-07 12:41:00,
2013-03-07 06:46:00,58.3,57.2,30.18,ENE,73,2.6,4.6,96,0.00,CLR,,0.00,WeatherDisplay:10.37,2013-03-07 12:46:00,
2013-03-07 06:51:00,58.2,57.1,30.19,East,96,2.2,4.6,96,0.00,CLR,,0.00,WeatherDisplay:10.37,2013-03-07 12:51:00,
2013-03-07 06:56:00,58.3,57.5,30.19,ESE,112,1.5,2.3,97,0.00,CLR,,0.00,WeatherDisplay:10.37,2013-03-07 12:56:00,
2013-03-07 07:01:00,58.2,57.4,30.19,East,93,2.1,2.6,97,0.00,CLR,,0.00,WeatherDisplay:10.37,2013-03-07 13:01:00,
2013-03-07 07:06:00,58.2,57.4,30.19,East,88,2.1,3.5,97,0.00,CLR,,0.00,WeatherDisplay:10.37,2013-03-07 13:06:00,
2013-03-07 07:11:00,58.2,57.4,30.19,East,80,2.7,3.5,97,0.00,CLR,,0.00,WeatherDisplay:10.37,2013-03-07 13:11:00,
2013-03-07 07:16:00,58.2,57.4,30.19,East,80,3.0,3.5,97,0.00,CLR,,0.00,WeatherDisplay:10.37,2013-03-07 13:16:00,
2013-03-07 07:21:00,58.2,57.4,30.19,East,82,2.8,3.5,97,0.00,CLR,,0.00,WeatherDisplay:10.37,2013-03-07 13:21:00,
2013-03-07 07:26:00,58.2,57.4,30.19,ESE,106,2.7,3.5,97,0.00,CLR,,0.00,WeatherDisplay:10.37,2013-03-07 13:26:00,
2013-03-07 07:32:00,58.3,57.5,30.20,East,82,2.6,5.8,97,0.00,CLR,,0.00,WeatherDisplay:10.37,2013-03-07 13:32:00,
2013-03-07 07:37:00,58.4,57.6,30.20,ENE,72,3.6,4.6,97,0.00,CLR,,0.00,WeatherDisplay:10.37,2013-03-07 13:37:00,
2013-03-07 07:42:00,58.5,57.7,30.19,ENE,69,3.4,4.6,97,0.00,CLR,,0.00,WeatherDisplay:10.37,2013-03-07 13:42:00,
2013-03-07 07:47:00,58.7,58.1,30.20,East,90,3.4,4.9,98,0.00,CLR,,0.00,WeatherDisplay:10.37,2013-03-07 13:47:00,
2013-03-07 07:52:00,58.9,58.3,30.20,East,92,3.1,4.6,98,0.00,CLR,,0.00,WeatherDisplay:10.37,2013-03-07 13:52:00,
2013-03-07 07:57:00,59.3,58.7,30.20,ESE,107,3.8,4.9,98,0.00,CLR,,0.00,WeatherDisplay:10.37,2013-03-07 13:57:00,
2013-03-07 08:02:00,59.5,58.9,30.21,East,82,3.4,5.8,98,0.00,CLR,,0.00,WeatherDisplay:10.37,2013-03-07 14:02:00,
2013-03-07 08:07:00,59.8,59.2,30.21,East,92,4.0,5.8,98,0.00,CLR,,0.00,WeatherDisplay:10.37,2013-03-07 14:07:00,
2013-03-07 08:12:00,60.2,59.6,30.21,East,90,3.7,4.6,98,0.00,CLR,,0.00,WeatherDisplay:10.37,2013-03-07 14:12:00,
2013-03-07 08:17:00,60.5,59.9,30.22,East,85,3.6,4.9,98,0.00,CLR,,0.00,WeatherDisplay:10.37,2013-03-07 14:17:00,
2013-03-07 08:22:00,60.8,60.2,30.22,ESE,106,3.8,5.8,98,0.00,CLR,,0.00,WeatherDisplay:10.37,2013-03-07 14:22:00,
2013-03-07 08:27:00,61.2,60.6,30.21,ENE,72,4.0,6.9,98,0.00,CLR,,0.00,WeatherDisplay:10.37,2013-03-07 14:27:00,
2013-03-07 08:32:00,61.5,60.9,30.21,ESE,104,4.3,6.4,98,0.00,CLR,,0.00,WeatherDisplay:10.37,2013-03-07 14:32:00,
2013-03-07 08:37:00,62.0,61.4,30.21,ESE,114,3.6,5.8,98,0.00,CLR,,0.00,WeatherDisplay:10.37,2013-03-07 14:37:00,
2013-03-07 08:42:00,62.4,61.8,30.22,East,80,4.4,5.8,98,0.00,CLR,,0.00,WeatherDisplay:10.37,2013-03-07 14:42:00,
2013-03-07 08:47:00,62.7,61.8,30.22,ESE,116,4.3,7.0,97,0.00,CLR,,0.00,WeatherDisplay:10.37,2013-03-07 14:47:00,
2013-03-07 08:52:00,63.0,62.1,30.22,ESE,106,3.8,6.9,97,0.00,CLR,,0.00,WeatherDisplay:10.37,2013-03-07 14:52:00,
2013-03-07 08:57:00,63.5,62.6,30.22,ESE,116,4.9,6.9,97,0.00,CLR,,0.00,WeatherDisplay:10.37,2013-03-07 14:57:00,
2013-03-07 09:02:00,63.9,62.4,30.22,SE,131,5.6,7.9,95,0.00,CLR,,0.00,WeatherDisplay:10.37,2013-03-07 15:02:00,
2013-03-07 09:07:00,64.4,62.3,30.22,East,85,4.3,6.9,93,0.00,CLR,,0.00,WeatherDisplay:10.37,2013-03-07 15:07:00,
2013-03-07 09:13:00,64.8,61.8,30.22,SE,130,6.6,9.2,90,0.00,CLR,,0.00,WeatherDisplay:10.37,2013-03-07 15:13:00,
2013-03-07 09:18:00,65.1,60.5,30.22,SE,133,6.1,11.5,85,0.00,CLR,,0.00,WeatherDisplay:10.37,2013-03-07 15:18:00,
2013-03-07 09:23:00,65.5,60.5,30.22,ESE,117,4.9,9.8,84,0.00,CLR,,0.00,WeatherDisplay:10.37,2013-03-07 15:23:00,
2013-03-07 09:28:00,65.8,60.5,30.22,SSE,154,6.8,9.8,83,0.00,CLR,,0.00,WeatherDisplay:10.37,2013-03-07 15:28:00,
2013-03-07 09:33:00,66.2,60.5,30.22,ENE,72,6.1,10.4,82,0.00,CLR,,0.00,WeatherDisplay:10.37,2013-03-07 15:33:00,
2013-03-07 09:38:00,66.7,60.3,30.22,SE,127,3.9,9.7,80,0.00,CLR,,0.00,WeatherDisplay:10.37,2013-03-07 15:38:00,
2013-03-07 09:43:00,67.2,60.1,30.23,SE,131,5.5,10.4,78,0.00,CLR,,0.00,WeatherDisplay:10.37,2013-03-07 15:43:00,
2013-03-07 09:48:00,67.4,59.6,30.23,ESE,102,5.3,9.8,76,0.00,CLR,,0.00,WeatherDisplay:10.37,2013-03-07 15:48:00,
2013-03-07 09:53:00,67.8,60.0,30.23,ESE,106,5.4,12.6,76,0.00,CLR,,0.00,WeatherDisplay:10.37,2013-03-07 15:53:00,
2013-03-07 09:58:00,67.9,59.3,30.23,ESE,107,5.4,9.3,74,0.00,CLR,,0.00,WeatherDisplay:10.37,2013-03-07 15:58:00,
2013-03-07 10:03:00,68.1,59.5,30.24,ESE,107,4.6,8.1,74,0.00,CLR,,0.00,WeatherDisplay:10.37,2013-03-07 16:03:00,
2013-03-07 10:08:00,68.3,58.9,30.24,SE,134,7.0,11.6,72,0.00,CLR,,0.00,WeatherDisplay:10.37,2013-03-07 16:08:00,
2013-03-07 10:13:00,68.3,59.3,30.24,ESE,113,4.8,10.4,73,0.00,CLR,,0.00,WeatherDisplay:10.37,2013-03-07 16:13:00,
2013-03-07 10:18:00,68.3,59.3,30.24,SE,145,6.6,9.2,73,0.00,CLR,,0.00,WeatherDisplay:10.37,2013-03-07 16:18:00,
2013-03-07 10:23:00,68.4,59.4,30.24,ESE,123,8.7,12.1,73,0.00,CLR,,0.00,WeatherDisplay:10.37,2013-03-07 16:23:00,
2013-03-07 10:28:00,68.3,59.3,30.24,SE,145,5.6,9.2,73,0.00,CLR,,0.00,WeatherDisplay:10.37,2013-03-07 16:28:00,
2013-03-07 10:33:00,68.5,59.5,30.24,ESE,106,6.9,13.1,73,0.00,CLR,,0.00,WeatherDisplay:10.37,2013-03-07 16:33:00,
2013-03-07 10:38:00,68.6,59.6,30.23,East,79,6.5,11.5,73,0.00,CLR,,0.00,WeatherDisplay:10.37,2013-03-07 16:38:00,
2013-03-07 10:43:00,68.8,59.4,30.23,East,93,6.2,11.5,72,0.00,CLR,,0.00,WeatherDisplay:10.37,2013-03-07 16:43:00,
2013-03-07 10:48:00,69.2,59.8,30.23,East,85,7.0,11.5,72,0.00,CLR,,0.00,WeatherDisplay:10.37,2013-03-07 16:48:00,
2013-03-07 10:53:00,69.5,60.1,30.24,ESE,106,7.3,12.7,72,0.00,CLR,,0.00,WeatherDisplay:10.37,2013-03-07 16:53:00,
2013-03-07 10:58:00,69.9,60.1,30.23,ESE,107,9.7,12.7,71,0.00,CLR,,0.00,WeatherDisplay:10.37,2013-03-07 16:58:00,
2013-03-07 11:03:00,70.2,60.0,30.24,East,100,7.8,13.8,70,0.00,CLR,,0.00,WeatherDisplay:10.37,2013-03-07 17:03:00,
2013-03-07 11:09:00,70.5,59.8,30.24,ESE,109,10.9,13.8,69,0.00,CLR,,0.00,WeatherDisplay:10.37,2013-03-07 17:09:00,
2013-03-07 11:14:00,70.7,60.4,30.23,East,83,6.8,12.7,70,0.00,CLR,,0.00,WeatherDisplay:10.37,2013-03-07 17:14:00,
2013-03-07 11:19:00,71.2,60.1,30.23,East,96,7.5,11.7,68,0.00,CLR,,0.00,WeatherDisplay:10.37,2013-03-07 17:19:00,
2013-03-07 11:24:00,71.3,59.8,30.22,East,92,9.8,15.0,67,0.00,CLR,,0.00,WeatherDisplay:10.37,2013-03-07 17:24:00,
2013-03-07 11:29:00,71.7,60.2,30.22,East,99,10.0,15.9,67,0.00,CLR,,0.00,WeatherDisplay:10.37,2013-03-07 17:29:00,
2013-03-07 11:34:00,71.8,59.8,30.22,East,90,10.2,17.3,66,0.00,CLR,,0.00,WeatherDisplay:10.37,2013-03-07 17:34:00,
2013-03-07 11:39:00,71.8,59.8,30.22,East,92,12.9,18.4,66,0.00,CLR,,0.00,WeatherDisplay:10.37,2013-03-07 17:39:00,
2013-03-07 11:44:00,71.7,59.7,30.22,ESE,102,13.7,20.7,66,0.00,CLR,,0.00,WeatherDisplay:10.37,2013-03-07 17:44:00,
2013-03-07 11:49:00,71.9,59.5,30.21,East,88,10.8,17.3,65,0.00,CLR,,0.00,WeatherDisplay:10.37,2013-03-07 17:49:00,
2013-03-07 11:54:00,72.0,60.0,30.21,East,92,13.3,20.5,66,0.00,CLR,,0.00,WeatherDisplay:10.37,2013-03-07 17:54:00,
2013-03-07 11:59:00,72.1,59.7,30.21,ESE,102,11.5,20.7,65,0.00,CLR,,0.00,WeatherDisplay:10.37,2013-03-07 17:59:00,
2013-03-07 12:04:00,72.4,59.5,30.21,ESE,106,11.1,20.7,64,0.00,CLR,,0.00,WeatherDisplay:10.37,2013-03-07 18:04:00,
2013-03-07 12:09:00,72.7,59.4,30.21,East,96,11.8,18.2,63,0.00,CLR,,0.00,WeatherDisplay:10.37,2013-03-07 18:09:00,
2013-03-07 12:14:00,72.8,59.0,30.21,ESE,102,12.6,22.0,62,0.00,CLR,,0.00,WeatherDisplay:10.37,2013-03-07 18:14:00,
2013-03-07 12:19:00,72.7,58.9,30.20,East,90,17.1,22.4,62,0.00,CLR,,0.00,WeatherDisplay:10.37,2013-03-07 18:19:00,
2013-03-07 12:24:00,72.5,59.2,30.20,ENE,75,17.6,23.0,63,0.00,,,0.00,WeatherDisplay:10.37,2013-03-07 18:24:00,
2013-03-07 12:29:00,72.4,59.1,30.20,East,99,14.8,24.9,63,0.00,,,0.00,WeatherDisplay:10.37,2013-03-07 18:29:00,
2013-03-07 12:34:00,72.6,59.3,30.20,ESE,109,13.6,25.3,63,0.00,,,0.00,WeatherDisplay:10.37,2013-03-07 18:34:00,
2013-03-07 12:39:00,72.5,59.6,30.20,East,92,11.2,20.7,64,0.00,CLR,,0.00,WeatherDisplay:10.37,2013-03-07 18:39:00,
2013-03-07 12:44:00,72.3,59.9,30.19,East,86,13.1,20.7,65,0.00,CLR,,0.00,WeatherDisplay:10.37,2013-03-07 18:44:00,
2013-03-07 12:49:00,72.2,60.2,30.19,ESE,106,11.5,22.7,66,0.00,CLR,,0.00,WeatherDisplay:10.37,2013-03-07 18:49:00,
2013-03-07 12:54:00,72.1,60.1,30.19,ESE,106,13.7,18.4,66,0.00,CLR,,0.00,WeatherDisplay:10.37,2013-03-07 18:54:00,
2013-03-07 12:59:00,71.8,59.8,30.18,ESE,107,14.3,21.0,66,0.00,CLR,,0.00,WeatherDisplay:10.37,2013-03-07 18:59:00,
2013-03-07 13:04:00,71.5,59.5,30.18,East,89,16.2,21.9,66,0.00,CLR,,0.00,WeatherDisplay:10.37,2013-03-07 19:04:00,
2013-03-07 13:09:00,71.4,59.9,30.18,East,97,13.9,21.2,67,0.00,CLR,,0.00,WeatherDisplay:10.37,2013-03-07 19:09:00,
2013-03-07 13:14:00,71.3,59.8,30.18,East,82,15.1,21.9,67,0.00,,,0.00,WeatherDisplay:10.37,2013-03-07 19:14:00,
2013-03-07 13:19:00,71.1,60.0,30.18,ENE,61,14.0,22.6,68,0.00,,,0.00,WeatherDisplay:10.37,2013-03-07 19:19:00,
2013-03-07 13:24:00,70.9,59.8,30.18,East,99,13.2,26.5,68,0.00,,,0.00,WeatherDisplay:10.37,2013-03-07 19:24:00,
2013-03-07 13:30:00,70.8,60.1,30.18,East,93,14.6,26.5,69,0.00,,,0.00,WeatherDisplay:10.37,2013-03-07 19:30:00,
2013-03-07 13:35:00,70.6,60.3,30.17,NE,47,16.0,21.9,70,0.00,,,0.00,WeatherDisplay:10.37,2013-03-07 19:35:00,
2013-03-07 13:40:00,70.5,59.8,30.17,East,96,16.9,23.1,69,0.00,,,0.00,WeatherDisplay:10.37,2013-03-07 19:40:00,
2013-03-07 13:45:00,70.8,60.1,30.17,East,93,14.5,20.7,69,0.00,CLR,,0.00,WeatherDisplay:10.37,2013-03-07 19:45:00,
2013-03-07 13:50:00,70.9,59.8,30.16,East,88,16.6,23.0,68,0.00,,,0.00,WeatherDisplay:10.37,2013-03-07 19:50:00,
2013-03-07 13:55:00,71.1,60.8,30.16,ENE,68,12.1,17.3,70,0.00,,,0.00,WeatherDisplay:10.37,2013-03-07 19:55:00,
2013-03-07 14:00:00,71.4,59.9,30.16,East,93,18.8,26.7,67,0.00,,,0.00,WeatherDisplay:10.37,2013-03-07 20:00:00,
2013-03-07 14:05:00,71.5,60.0,30.15,ESE,106,15.1,20.7,67,0.00,CLR,,0.00,WeatherDisplay:10.37,2013-03-07 20:05:00,
2013-03-07 14:10:00,71.5,60.0,30.15,East,100,12.6,22.2,67,0.00,CLR,,0.00,WeatherDisplay:10.37,2013-03-07 20:10:00,
2013-03-07 14:15:00,72.0,60.4,30.15,ESE,113,11.7,15.1,67,0.00,CLR,,0.00,WeatherDisplay:10.37,2013-03-07 20:15:00,
2013-03-07 14:20:00,72.0,60.0,30.15,East,100,14.6,21.9,66,0.00,CLR,,0.00,WeatherDisplay:10.37,2013-03-07 20:20:00,
2013-03-07 14:25:00,72.0,60.0,30.15,ENE,68,12.3,24.2,66,0.00,,,0.00,WeatherDisplay:10.37,2013-03-07 20:25:00,
2013-03-07 14:30:00,72.2,59.8,30.15,ESE,107,16.2,21.9,65,0.00,,,0.00,WeatherDisplay:10.37,2013-03-07 20:30:00,
2013-03-07 14:35:00,72.2,59.8,30.15,East,80,12.3,19.5,65,0.00,,,0.00,WeatherDisplay:10.37,2013-03-07 20:35:00,
2013-03-07 14:40:00,72.2,59.8,30.15,ESE,113,16.0,23.0,65,0.00,,,0.00,WeatherDisplay:10.37,2013-03-07 20:40:00,
2013-03-07 14:45:00,72.0,60.0,30.15,East,86,13.8,22.1,66,0.00,,,0.00,WeatherDisplay:10.37,2013-03-07 20:45:00,
2013-03-07 14:50:00,72.2,59.8,30.15,ENE,68,14.3,23.0,65,0.00,,,0.00,WeatherDisplay:10.37,2013-03-07 20:50:00,
2013-03-07 14:55:00,72.2,60.2,30.14,East,82,10.8,20.7,66,0.00,CLR,,0.00,WeatherDisplay:10.37,2013-03-07 20:55:00,
2013-03-07 15:00:00,72.2,59.8,30.14,East,82,14.8,23.5,65,0.00,,,0.00,WeatherDisplay:10.37,2013-03-07 21:00:00,
2013-03-07 15:05:00,72.2,60.2,30.14,ESE,102,15.8,20.9,66,0.00,,,0.00,WeatherDisplay:10.37,2013-03-07 21:05:00,
2013-03-07 15:10:00,72.1,60.1,30.14,ESE,103,14.0,24.2,66,0.00,,,0.00,WeatherDisplay:10.37,2013-03-07 21:10:00,
2013-03-07 15:15:00,71.7,60.2,30.14,ESE,106,9.7,19.6,67,0.00,CLR,,0.00,WeatherDisplay:10.37,2013-03-07 21:15:00,
2013-03-07 15:20:00,71.3,60.2,30.14,East,80,13.4,24.5,68,0.00,,,0.00,WeatherDisplay:10.37,2013-03-07 21:20:00,
2013-03-07 15:25:00,71.2,60.5,30.14,ESE,116,11.6,16.9,69,0.00,,,0.00,WeatherDisplay:10.37,2013-03-07 21:25:00,
2013-03-07 15:31:00,71.6,60.1,30.14,ESE,106,12.5,21.9,67,0.00,,,0.00,WeatherDisplay:10.37,2013-03-07 21:31:00,
2013-03-07 15:36:00,71.9,60.3,30.14,SSE,148,10.6,18.4,67,0.00,CLR,,0.00,WeatherDisplay:10.37,2013-03-07 21:36:00,
2013-03-07 15:41:00,72.2,60.2,30.14,East,93,13.0,20.0,66,0.00,CLR,,0.00,WeatherDisplay:10.37,2013-03-07 21:41:00,
2013-03-07 15:46:00,71.7,59.7,30.14,East,97,10.2,18.7,66,0.00,CLR,,0.00,WeatherDisplay:10.37,2013-03-07 21:46:00,
2013-03-07 15:51:00,71.8,60.2,30.14,East,99,12.8,19.6,67,0.00,CLR,,0.00,WeatherDisplay:10.37,2013-03-07 21:51:00,
2013-03-07 15:56:00,71.6,60.1,30.14,ESE,102,12.5,17.7,67,0.00,CLR,,0.00,WeatherDisplay:10.37,2013-03-07 21:56:00,
2013-03-07 16:01:00,71.5,60.0,30.14,East,100,11.8,20.7,67,0.00,CLR,,0.00,WeatherDisplay:10.37,2013-03-07 22:01:00,
2013-03-07 16:07:00,71.5,60.4,30.14,East,90,15.3,19.7,68,0.00,CLR,,0.00,WeatherDisplay:10.37,2013-03-07 22:07:00,
2013-03-07 16:12:00,71.4,60.7,30.14,ESE,113,12.9,19.6,69,0.00,CLR,,0.00,WeatherDisplay:10.37,2013-03-07 22:12:00,
2013-03-07 16:17:00,71.0,60.7,30.14,ESE,117,12.9,19.6,70,0.00,CLR,,0.00,WeatherDisplay:10.37,2013-03-07 22:17:00,
2013-03-07 16:22:00,70.9,61.0,30.14,East,100,12.0,16.4,71,0.00,CLR,,0.00,WeatherDisplay:10.37,2013-03-07 22:22:00,
2013-03-07 16:27:00,72.5,60.9,30.13,ESE,112,12.6,18.4,67,0.00,CLR,,0.00,WeatherDisplay:10.37,2013-03-07 22:27:00,
2013-03-07 16:32:00,72.8,59.9,30.13,East,86,13.7,21.3,64,0.00,CLR,,0.00,WeatherDisplay:10.37,2013-03-07 22:32:00,
2013-03-07 16:37:00,71.9,59.9,30.13,East,97,9.9,19.6,66,0.00,CLR,,0.00,WeatherDisplay:10.37,2013-03-07 22:37:00,
2013-03-07 16:42:00,71.2,60.1,30.13,East,89,12.5,19.6,68,0.00,CLR,,0.00,WeatherDisplay:10.37,2013-03-07 22:42:00,
2013-03-07 16:47:00,70.6,60.3,30.14,East,100,12.5,18.4,70,0.00,CLR,,0.00,WeatherDisplay:10.37,2013-03-07 22:47:00,
2013-03-07 16:52:00,70.4,60.5,30.13,ESE,106,12.2,18.4,71,0.00,CLR,,0.00,WeatherDisplay:10.37,2013-03-07 22:52:00,
2013-03-07 16:57:00,70.1,60.7,30.14,ESE,106,13.2,17.6,72,0.00,CLR,,0.00,WeatherDisplay:10.37,2013-03-07 22:57:00,
2013-03-07 17:02:00,69.7,60.3,30.14,ESE,106,12.6,19.6,72,0.00,CLR,,0.00,WeatherDisplay:10.37,2013-03-07 23:02:00,
2013-03-07 17:07:00,69.5,60.8,30.14,ESE,109,11.3,19.6,74,0.00,CLR,,0.00,WeatherDisplay:10.37,2013-03-07 23:07:00,
2013-03-07 17:12:00,69.2,60.6,30.14,East,100,12.6,18.4,74,0.00,CLR,,0.00,WeatherDisplay:10.37,2013-03-07 23:12:00,
2013-03-07 17:17:00,68.9,60.6,30.13,East,99,14.5,19.6,75,0.00,CLR,,0.00,WeatherDisplay:10.37,2013-03-07 23:17:00,
2013-03-07 17:22:00,68.8,60.9,30.14,East,92,12.9,19.6,76,0.00,CLR,,0.00,WeatherDisplay:10.37,2013-03-07 23:22:00,
2013-03-07 17:27:00,68.8,60.9,30.14,East,85,11.4,19.6,76,0.00,CLR,,0.00,WeatherDisplay:10.37,2013-03-07 23:27:00,
2013-03-07 17:32:00,68.9,61.0,30.14,SE,127,12.1,17.3,76,0.00,CLR,,0.00,WeatherDisplay:10.37,2013-03-07 23:32:00,
2013-03-07 17:37:00,68.8,60.9,30.14,East,100,11.7,18.2,76,0.00,CLR,,0.00,WeatherDisplay:10.37,2013-03-07 23:37:00,
2013-03-07 17:42:00,68.7,61.2,30.14,ESE,112,11.9,17.3,77,0.00,CLR,,0.00,WeatherDisplay:10.37,2013-03-07 23:42:00,
2013-03-07 17:48:00,68.5,61.0,30.15,East,92,11.8,17.8,77,0.00,CLR,,0.00,WeatherDisplay:10.37,2013-03-07 23:48:00,
2013-03-07 17:53:00,68.4,61.3,30.15,ESE,107,7.9,18.0,78,0.00,CLR,,0.00,WeatherDisplay:10.37,2013-03-07 23:53:00,
2013-03-07 17:58:00,68.3,61.2,30.15,East,83,11.0,17.3,78,0.00,CLR,,0.00,WeatherDisplay:10.37,2013-03-07 23:58:00,
2013-03-07 18:03:00,68.1,61.0,30.15,East,99,13.5,18.2,78,0.00,CLR,,0.00,WeatherDisplay:10.37,2013-03-08 00:03:00,
2013-03-07 18:08:00,67.9,61.1,30.15,East,96,14.0,17.9,79,0.00,CLR,,0.00,WeatherDisplay:10.37,2013-03-08 00:08:00,
2013-03-07 18:13:00,67.8,61.4,30.14,East,83,12.6,17.3,80,0.00,CLR,,0.00,WeatherDisplay:10.37,2013-03-08 00:13:00,
2013-03-07 18:18:00,67.6,61.2,30.15,East,97,12.5,17.3,80,0.00,CLR,,0.00,WeatherDisplay:10.37,2013-03-08 00:18:00,
2013-03-07 18:23:00,67.5,61.1,30.15,ESE,103,12.0,17.4,80,0.00,CLR,,0.00,WeatherDisplay:10.37,2013-03-08 00:23:00,
2013-03-07 18:28:00,67.4,61.4,30.15,East,100,10.8,17.4,81,0.00,CLR,,0.00,WeatherDisplay:10.37,2013-03-08 00:28:00,
2013-03-07 18:33:00,67.3,61.3,30.15,ESE,102,11.7,17.3,81,0.00,CLR,,0.00,WeatherDisplay:10.37,2013-03-08 00:33:00,
2013-03-07 18:38:00,67.1,61.4,30.15,ESE,107,13.0,17.3,82,0.00,CLR,,0.00,WeatherDisplay:10.37,2013-03-08 00:38:00,
2013-03-07 18:43:00,66.9,61.6,30.15,East,97,10.6,17.3,83,0.00,CLR,,0.00,WeatherDisplay:10.37,2013-03-08 00:43:00,
2013-03-07 18:48:00,66.8,61.5,30.15,East,82,9.5,16.1,83,0.00,CLR,,0.00,WeatherDisplay:10.37,2013-03-08 00:48:00,
2013-03-07 18:53:00,66.7,61.7,30.15,ESE,106,10.1,16.8,84,0.00,CLR,,0.00,WeatherDisplay:10.37,2013-03-08 00:53:00,
2013-03-07 18:58:00,66.6,61.6,30.14,East,95,10.7,17.3,84,0.00,CLR,,0.00,WeatherDisplay:10.37,2013-03-08 00:58:00,
2013-03-07 19:03:00,66.4,61.4,30.15,East,86,8.7,13.8,84,0.00,CLR,,0.00,WeatherDisplay:10.37,2013-03-08 01:03:00,
2013-03-07 19:08:00,66.3,61.3,30.14,ENE,76,10.5,15.6,84,0.00,CLR,,0.00,WeatherDisplay:10.37,2013-03-08 01:08:00,
2013-03-07 19:13:00,66.2,61.6,30.15,SE,127,10.6,15.0,85,0.00,CLR,,0.00,WeatherDisplay:10.37,2013-03-08 01:13:00,
2013-03-07 19:18:00,66.1,61.5,30.15,East,93,7.9,12.7,85,0.00,CLR,,0.00,WeatherDisplay:10.37,2013-03-08 01:18:00,
2013-03-07 19:23:00,66.1,61.5,30.15,East,80,8.5,12.7,85,0.00,CLR,,0.00,WeatherDisplay:10.37,2013-03-08 01:23:00,
2013-03-07 19:28:00,66.1,61.8,30.15,East,83,9.6,13.8,86,0.00,CLR,,0.00,WeatherDisplay:10.37,2013-03-08 01:28:00,
2013-03-07 19:33:00,65.9,61.6,30.15,ESE,112,9.5,13.8,86,0.00,CLR,,0.00,WeatherDisplay:10.37,2013-03-08 01:33:00,
2013-03-07 19:38:00,65.9,61.6,30.15,ESE,104,10.3,14.4,86,0.00,CLR,,0.00,WeatherDisplay:10.37,2013-03-08 01:38:00,
2013-03-07 19:43:00,65.8,61.5,30.15,East,97,10.7,16.1,86,0.00,CLR,,0.00,WeatherDisplay:10.37,2013-03-08 01:43:00,
2013-03-07 19:48:00,65.8,61.5,30.15,ESE,102,9.7,16.1,86,0.00,CLR,,0.00,WeatherDisplay:10.37,2013-03-08 01:48:00,
2013-03-07 19:53:00,65.9,61.9,30.15,ESE,102,10.3,16.3,87,0.00,CLR,,0.00,WeatherDisplay:10.37,2013-03-08 01:53:00,
2013-03-07 19:58:00,65.8,61.8,30.15,ESE,114,11.0,15.2,87,0.00,CLR,,0.00,WeatherDisplay:10.37,2013-03-08 01:58:00,
2013-03-07 20:03:00,65.8,61.8,30.15,East,79,10.8,17.3,87,0.00,CLR,,0.00,WeatherDisplay:10.37,2013-03-08 02:03:00,
2013-03-07 20:08:00,65.7,61.7,30.15,ESE,112,10.9,17.3,87,0.00,CLR,,0.00,WeatherDisplay:10.37,2013-03-08 02:08:00,
2013-03-07 20:13:00,65.7,61.7,30.15,SE,126,10.6,16.0,87,0.00,CLR,,0.00,WeatherDisplay:10.37,2013-03-08 02:13:00,
2013-03-07 20:18:00,65.6,61.6,30.15,East,92,6.4,10.4,87,0.00,CLR,,0.00,WeatherDisplay:10.37,2013-03-08 02:18:00,
2013-03-07 20:23:00,65.6,61.6,30.16,SSE,162,6.1,10.4,87,0.00,CLR,,0.00,WeatherDisplay:10.37,2013-03-08 02:23:00,
2013-03-07 20:28:00,65.6,61.6,30.16,ESE,103,8.4,12.7,87,0.00,CLR,,0.00,WeatherDisplay:10.37,2013-03-08 02:28:00,
2013-03-07 20:33:00,65.6,61.6,30.15,ESE,104,7.9,12.7,87,0.00,CLR,,0.00,WeatherDisplay:10.37,2013-03-08 02:33:00,
2013-03-07 20:39:00,65.5,61.5,30.15,ESE,102,8.5,12.7,87,0.00,CLR,,0.00,WeatherDisplay:10.37,2013-03-08 02:39:00,
2013-03-07 20:44:00,65.5,61.9,30.16,ESE,102,9.5,13.8,88,0.00,CLR,,0.00,WeatherDisplay:10.37,2013-03-08 02:44:00,
2013-03-07 20:49:00,65.5,61.9,30.16,ESE,102,10.5,16.1,88,0.00,CLR,,0.00,WeatherDisplay:10.37,2013-03-08 02:49:00,
2013-03-07 20:54:00,65.4,61.8,30.16,ESE,102,9.0,12.7,88,0.00,CLR,,0.00,WeatherDisplay:10.37,2013-03-08 02:54:00,
2013-03-07 20:59:00,65.5,61.9,30.16,East,96,7.5,12.7,88,0.00,CLR,,0.00,WeatherDisplay:10.37,2013-03-08 02:59:00,
2013-03-07 21:04:00,65.4,61.8,30.17,ESE,110,9.3,12.1,88,0.00,CLR,,0.00,WeatherDisplay:10.37,2013-03-08 03:04:00,
2013-03-07 21:09:00,65.5,61.9,30.16,East,83,8.7,16.1,88,0.00,CLR,,0.00,WeatherDisplay:10.37,2013-03-08 03:09:00,
2013-03-07 21:14:00,65.5,61.9,30.16,East,93,8.3,15.0,88,0.00,CLR,,0.00,WeatherDisplay:10.37,2013-03-08 03:14:00,
2013-03-07 21:20:00,65.5,62.2,30.16,East,90,10.1,15.0,89,0.00,CLR,,0.00,WeatherDisplay:10.37,2013-03-08 03:20:00,
2013-03-07 21:25:00,65.4,62.1,30.16,ESE,107,8.2,12.7,89,0.00,CLR,,0.00,WeatherDisplay:10.37,2013-03-08 03:25:00,
2013-03-07 21:30:00,65.4,62.1,30.17,East,92,7.6,14.3,89,0.00,CLR,,0.00,WeatherDisplay:10.37,2013-03-08 03:30:00,
2013-03-07 21:35:00,65.4,62.4,30.17,East,92,9.0,11.7,90,0.00,CLR,,0.00,WeatherDisplay:10.37,2013-03-08 03:35:00,
2013-03-07 21:40:00,65.3,62.3,30.17,ESE,114,7.8,11.5,90,0.00,CLR,,0.00,WeatherDisplay:10.37,2013-03-08 03:40:00,
2013-03-07 21:45:00,65.4,62.4,30.16,SE,131,8.1,12.0,90,0.00,CLR,,0.00,WeatherDisplay:10.37,2013-03-08 03:45:00,
2013-03-07 21:50:00,65.4,62.4,30.16,East,100,8.5,13.8,90,0.00,CLR,,0.00,WeatherDisplay:10.37,2013-03-08 03:50:00,
2013-03-07 21:55:00,65.4,62.4,30.16,East,83,9.6,15.0,90,0.00,CLR,,0.00,WeatherDisplay:10.37,2013-03-08 03:55:00,
2013-03-07 22:00:00,65.4,62.4,30.16,East,88,7.5,11.5,90,0.00,CLR,,0.00,WeatherDisplay:10.37,2013-03-08 04:00:00,
2013-03-07 22:05:00,65.4,62.7,30.16,ENE,78,7.8,10.9,91,0.00,CLR,,0.00,WeatherDisplay:10.37,2013-03-08 04:05:00,
2013-03-07 22:10:00,65.4,62.7,30.16,East,83,9.9,15.0,91,0.00,CLR,,0.00,WeatherDisplay:10.37,2013-03-08 04:10:00,
2013-03-07 22:15:00,65.5,62.8,30.16,ESE,110,8.6,12.7,91,0.00,CLR,,0.00,WeatherDisplay:10.37,2013-03-08 04:15:00,
2013-03-07 22:20:00,65.4,63.0,30.16,ESE,120,7.3,10.4,92,0.00,CLR,,0.00,WeatherDisplay:10.37,2013-03-08 04:20:00,
2013-03-07 22:25:00,65.4,63.0,30.16,East,95,5.8,10.4,92,0.00,CLR,,0.00,WeatherDisplay:10.37,2013-03-08 04:25:00,
2013-03-07 22:30:00,65.3,62.9,30.17,SE,130,5.8,11.4,92,0.00,CLR,,0.00,WeatherDisplay:10.37,2013-03-08 04:30:00,
2013-03-07 22:35:00,65.4,63.0,30.17,SSE,152,6.4,9.2,92,0.00,CLR,,0.00,WeatherDisplay:10.37,2013-03-08 04:35:00,
2013-03-07 22:40:00,65.3,62.9,30.17,SE,140,7.5,10.4,92,0.00,CLR,,0.00,WeatherDisplay:10.37,2013-03-08 04:40:00,
2013-03-07 22:45:00,65.4,63.3,30.16,East,99,6.6,13.1,93,0.00,CLR,,0.00,WeatherDisplay:10.37,2013-03-08 04:45:00,
2013-03-07 22:50:00,65.4,63.3,30.16,ESE,117,8.8,14.9,93,0.00,CLR,,0.00,WeatherDisplay:10.37,2013-03-08 04:50:00,
2013-03-07 22:55:00,65.6,63.2,30.15,East,96,8.3,12.7,92,0.00,CLR,,0.00,WeatherDisplay:10.37,2013-03-08 04:55:00,
2013-03-07 23:00:00,65.6,63.2,30.15,East,95,9.6,13.8,92,0.00,CLR,,0.00,WeatherDisplay:10.37,2013-03-08 05:00:00,
2013-03-07 23:01:00,65.6,63.2,30.15,SE,127,9.2,15.5,92,0.00,CLR,,0.00,WeatherDisplay:10.37,2013-03-08 05:01:00,
2013-03-07 23:05:00,65.7,63.3,30.15,ESE,112,9.4,15.2,92,0.00,CLR,,0.00,WeatherDisplay:10.37,2013-03-08 05:05:00,
2013-03-07 23:10:00,65.7,63.3,30.15,East,99,7.3,15.2,92,0.00,CLR,,0.00,WeatherDisplay:10.37,2013-03-08 05:10:00,
2013-03-07 23:16:00,65.6,63.2,30.15,East,86,10.4,10.4,92,0.00,CLR,,0.00,WeatherDisplay:10.37,2013-03-08 05:16:00,
2013-03-07 23:21:00,65.6,63.2,30.15,SE,126,8.8,12.7,92,0.00,CLR,,0.00,WeatherDisplay:10.37,2013-03-08 05:21:00,
2013-03-07 23:26:00,65.5,63.1,30.15,ENE,75,7.7,12.7,92,0.00,CLR,,0.00,WeatherDisplay:10.37,2013-03-08 05:26:00,
2013-03-07 23:31:00,65.4,63.0,30.14,SSE,158,8.2,13.9,92,0.00,CLR,,0.00,WeatherDisplay:10.37,2013-03-08 05:31:00,
2013-03-07 23:36:00,65.4,63.3,30.14,ESE,109,7.9,11.7,93,0.00,CLR,,0.00,WeatherDisplay:10.37,2013-03-08 05:36:00,
2013-03-07 23:41:00,65.4,63.3,30.13,East,89,6.7,13.8,93,0.00,CLR,,0.00,WeatherDisplay:10.37,2013-03-08 05:41:00,
2013-03-07 23:46:00,65.4,63.3,30.13,East,97,7.4,15.1,93,0.00,CLR,,0.00,WeatherDisplay:10.37,2013-03-08 05:46:00,
2013-03-07 23:51:00,65.5,63.4,30.14,ESE,113,5.3,13.9,93,0.00,CLR,,0.00,WeatherDisplay:10.37,2013-03-08 05:51:00,
2013-03-07 23:56:00,65.6,63.5,30.14,SE,128,6.7,11.5,93,0.00,CLR,,0.00,WeatherDisplay:10.37,2013-03-08 05:56:00,